createdAt,value
2019-03-30T00:01:35.419Z,146.75
2019-03-30T00:03:39.282Z,146.55
2019-03-30T00:05:43.127Z,144.43
2019-03-30T00:07:47.199Z,148.65
2019-03-30T00:09:51.215Z,144.32
2019-03-30T00:11:57.745Z,145.05
2019-03-30T00:14:00.631Z,148.05
2019-03-30T00:16:04.442Z,150.22
2019-03-30T00:18:08.349Z,149.55
2019-03-30T00:20:12.345Z,153.10
2019-03-30T00:22:16.199Z,157.82
2019-03-30T00:24:20.049Z,152.55
2019-03-30T00:26:23.925Z,147.55
2019-03-30T00:28:27.794Z,154.30
2019-03-30T00:30:31.662Z,149.60
2019-03-30T00:32:35.565Z,151.12
2019-03-30T00:34:39.453Z,162.50
2019-03-30T00:36:43.334Z,167.03
2019-03-30T00:38:47.305Z,169.40
2019-03-30T00:40:51.155Z,171.25
2019-03-30T00:42:55.030Z,167.93
2019-03-30T00:44:59.075Z,170.80
2019-03-30T00:47:02.927Z,177.32
2019-03-30T00:49:06.786Z,176.95
2019-03-30T00:51:10.696Z,182.90
2019-03-30T00:53:14.556Z,188.95
2019-03-30T00:55:18.401Z,190.12
2019-03-30T00:57:22.303Z,197.78
2019-03-30T00:59:26.187Z,188.87
2019-03-30T01:01:30.028Z,192.37
2019-03-30T01:03:33.912Z,199.68
2019-03-30T01:05:37.822Z,193.87
2019-03-30T01:07:41.687Z,200.70
2019-03-30T01:09:45.878Z,211.92
2019-03-30T01:11:49.759Z,228.30
2019-03-30T01:13:53.575Z,236.05
2019-03-30T01:15:57.481Z,238.20
2019-03-30T01:18:01.367Z,225.22
2019-03-30T01:20:07.194Z,228.27
2019-03-30T01:22:11.103Z,235.90
2019-03-30T01:24:14.953Z,234.67
2019-03-30T01:26:18.802Z,239.25
2019-03-30T01:28:22.688Z,238.03
2019-03-30T01:30:26.531Z,229.72
2019-03-30T01:32:30.424Z,235.63
2019-03-30T01:34:34.384Z,228.62
2019-03-30T01:36:38.219Z,233.75
2019-03-30T01:38:42.049Z,244.97
2019-03-30T01:40:46.006Z,239.15
2019-03-30T01:42:49.763Z,237.48
2019-03-30T01:44:53.577Z,231.60
2019-03-30T01:46:57.519Z,229.30
2019-03-30T01:49:01.355Z,228.10
2019-03-30T01:51:05.232Z,224.52
2019-03-30T01:53:09.153Z,225.28
2019-03-30T01:55:13.100Z,230.75
2019-03-30T01:57:16.973Z,239.55
2019-03-30T01:59:20.875Z,220.67
2019-03-30T02:01:27.924Z,229.10
2019-03-30T02:03:31.813Z,222.05
2019-03-30T02:05:35.699Z,221.85
2019-03-30T02:07:39.502Z,234.92
2019-03-30T02:09:43.280Z,234.15
2019-03-30T02:11:47.440Z,228.60
2019-03-30T02:13:51.350Z,214.93
2019-03-30T02:15:55.243Z,220.78
2019-03-30T02:17:59.123Z,214.60
2019-03-30T02:20:03.307Z,217.37
2019-03-30T02:22:07.206Z,205.50
2019-03-30T02:24:11.070Z,209.83
2019-03-30T02:26:14.965Z,212.80
2019-03-30T02:28:18.818Z,206.38
2019-03-30T02:30:22.757Z,208.45
2019-03-30T02:32:26.588Z,214.45
2019-03-30T02:34:30.552Z,202.38
2019-03-30T02:36:34.475Z,206.68
2019-03-30T02:38:38.314Z,204.90
2019-03-30T02:40:42.146Z,198.78
2019-03-30T02:42:46.065Z,195.97
2019-03-30T02:44:49.958Z,190.00
2019-03-30T02:46:53.838Z,190.57
2019-03-30T02:48:57.741Z,189.65
2019-03-30T02:51:01.634Z,191.00
2019-03-30T02:53:05.510Z,190.40
2019-03-30T02:55:12.537Z,192.07
2019-03-30T02:57:14.935Z,202.45
2019-03-30T02:59:18.925Z,194.47
2019-03-30T03:01:22.865Z,190.03
2019-03-30T03:03:26.694Z,188.50
2019-03-30T03:05:30.554Z,181.75
2019-03-30T03:07:34.463Z,183.20
2019-03-30T03:09:38.335Z,181.45
2019-03-30T03:11:42.194Z,181.75
2019-03-30T03:13:46.082Z,180.57
2019-03-30T03:15:49.941Z,181.10
2019-03-30T03:17:53.833Z,182.37
2019-03-30T03:19:57.893Z,176.87
2019-03-30T03:22:01.758Z,176.75
2019-03-30T03:24:25.206Z,176.57
2019-03-30T03:26:29.098Z,173.40
2019-03-30T03:28:32.952Z,180.07
2019-03-30T03:30:36.784Z,172.75
2019-03-30T03:32:40.672Z,174.75
2019-03-30T03:34:44.494Z,179.47
2019-03-30T03:36:48.550Z,177.68
2019-03-30T03:38:52.565Z,172.02
2019-03-30T03:40:56.552Z,177.45
2019-03-30T03:43:00.593Z,173.65
2019-03-30T03:45:06.952Z,177.12
2019-03-30T03:47:10.786Z,168.93
2019-03-30T03:49:14.646Z,175.72
2019-03-30T03:51:26.240Z,170.72
2019-03-30T03:53:25.676Z,177.40
2019-03-30T03:55:30.451Z,170.97
2019-03-30T03:57:37.227Z,170.40
2019-03-30T03:59:41.725Z,177.35
2019-03-30T04:01:47.651Z,178.50
2019-03-30T04:03:53.433Z,173.22
2019-03-30T04:05:59.238Z,171.05
2019-03-30T04:08:06.175Z,166.00
2019-03-30T04:10:10.378Z,174.70
2019-03-30T04:12:16.016Z,171.55
2019-03-30T04:14:22.946Z,175.55
2019-03-30T04:16:27.039Z,160.97
2019-03-30T04:18:30.886Z,164.22
2019-03-30T04:20:34.764Z,168.15
2019-03-30T04:22:38.658Z,168.05
2019-03-30T04:24:42.533Z,168.32
2019-03-30T04:26:46.390Z,162.80
2019-03-30T04:28:50.405Z,167.47
2019-03-30T04:30:54.370Z,161.43
2019-03-30T04:32:58.294Z,161.77
2019-03-30T04:35:02.709Z,149.35
2019-03-30T04:37:06.592Z,150.35
2019-03-30T04:39:10.459Z,155.75
2019-03-30T04:41:14.376Z,156.50
2019-03-30T04:43:18.360Z,153.40
2019-03-30T04:45:22.260Z,145.25
2019-03-30T04:47:26.192Z,138.52
2019-03-30T04:49:30.016Z,146.62
2019-03-30T04:51:33.894Z,140.92
2019-03-30T04:53:37.796Z,149.87
2019-03-30T04:55:41.712Z,143.80
2019-03-30T04:57:49.748Z,144.50
2019-03-30T04:59:51.110Z,141.10
2019-03-30T05:01:54.968Z,141.85
2019-03-30T05:03:58.819Z,150.93
2019-03-30T05:06:03.158Z,142.98
2019-03-30T05:08:07.068Z,140.22
2019-03-30T05:10:11.037Z,143.78
2019-03-30T05:12:15.031Z,132.32
2019-03-30T05:14:18.945Z,133.37
2019-03-30T05:16:22.816Z,142.13
2019-03-30T05:18:26.751Z,143.40
2019-03-30T05:20:30.542Z,135.43
2019-03-30T05:22:34.422Z,139.88
2019-03-30T05:24:38.296Z,135.57
2019-03-30T05:26:42.203Z,135.85
2019-03-30T05:28:46.078Z,130.93
2019-03-30T05:30:50.018Z,139.77
2019-03-30T05:33:04.965Z,139.22
2019-03-30T05:34:59.437Z,138.18
2019-03-30T05:37:03.647Z,143.07
2019-03-30T05:39:07.477Z,136.55
2019-03-30T05:41:11.341Z,140.95
2019-03-30T05:43:15.288Z,142.47
2019-03-30T05:45:19.238Z,141.15
2019-03-30T05:47:23.070Z,146.30
2019-03-30T05:49:27.150Z,153.20
2019-03-30T05:51:30.984Z,151.55
2019-03-30T05:53:34.866Z,161.65
2019-03-30T05:55:38.792Z,163.12
2019-03-30T05:57:42.650Z,150.35
2019-03-30T05:59:46.519Z,153.62
2019-03-30T06:01:50.412Z,151.50
2019-03-30T06:03:54.229Z,161.90
2019-03-30T06:05:58.070Z,154.10
2019-03-30T06:08:01.944Z,145.77
2019-03-30T06:10:06.879Z,149.55
2019-03-30T06:12:10.755Z,145.40
2019-03-30T06:14:14.592Z,145.47
2019-03-30T06:16:18.437Z,150.12
2019-03-30T06:18:22.346Z,141.47
2019-03-30T06:20:26.257Z,149.87
2019-03-30T06:22:40.304Z,155.30
2019-03-30T06:24:35.690Z,148.43
2019-03-30T06:26:39.609Z,154.10
2019-03-30T06:28:43.492Z,154.42
2019-03-30T06:30:47.362Z,142.77
2019-03-30T06:32:51.217Z,160.85
2019-03-30T06:34:55.116Z,150.78
2019-03-30T06:36:58.974Z,143.17
2019-03-30T06:39:04.573Z,142.05
2019-03-30T06:41:08.577Z,135.88
2019-03-30T06:43:12.503Z,147.30
2019-03-30T06:45:16.604Z,141.55
2019-03-30T06:47:20.397Z,148.32
2019-03-30T06:49:24.282Z,139.52
2019-03-30T06:51:28.129Z,139.05
2019-03-30T06:53:31.915Z,146.07
2019-03-30T06:55:35.818Z,146.47
2019-03-30T06:57:39.711Z,144.40
2019-03-30T06:59:43.922Z,139.35
2019-03-30T07:01:47.861Z,147.32
2019-03-30T07:03:51.741Z,136.62
2019-03-30T07:05:56.945Z,131.87
2019-03-30T07:08:02.454Z,139.12
2019-03-30T07:10:06.674Z,138.47
2019-03-30T07:12:10.552Z,140.77
2019-03-30T07:14:14.427Z,137.03
2019-03-30T07:16:18.387Z,130.40
2019-03-30T07:18:22.333Z,127.60
2019-03-30T07:20:27.863Z,138.75
2019-03-30T07:22:31.758Z,129.32
2019-03-30T07:24:35.563Z,129.30
2019-03-30T07:26:39.481Z,131.30
2019-03-30T07:28:46.876Z,135.97
2019-03-30T07:30:49.247Z,135.10
2019-03-30T07:32:53.403Z,129.78
2019-03-30T07:34:57.324Z,125.00
2019-03-30T07:37:01.186Z,125.42
2019-03-30T07:39:06.110Z,116.67
2019-03-30T07:41:10.063Z,128.85
2019-03-30T07:43:13.927Z,122.05
2019-03-30T07:45:19.316Z,131.52
2019-03-30T07:47:23.268Z,123.85
2019-03-30T07:49:27.183Z,127.67
2019-03-30T07:51:33.435Z,122.67
2019-03-30T07:53:44.353Z,128.27
2019-03-30T07:55:42.124Z,126.15
2019-03-30T07:57:46.007Z,121.80
2019-03-30T07:59:51.410Z,119.50
2019-03-30T08:01:55.323Z,122.25
2019-03-30T08:04:01.530Z,121.50
2019-03-30T08:06:05.383Z,117.82
2019-03-30T08:08:12.157Z,110.78
2019-03-30T08:10:16.150Z,114.37
2019-03-30T08:12:21.655Z,109.75
2019-03-30T08:14:25.585Z,109.72
2019-03-30T08:16:29.463Z,102.10
2019-03-30T08:18:33.345Z,99.32
2019-03-30T08:20:37.206Z,102.75
2019-03-30T08:22:44.135Z,103.35
2019-03-30T08:24:48.015Z,107.72
2019-03-30T08:26:51.921Z,111.55
2019-03-30T08:28:55.747Z,96.47
2019-03-30T08:30:59.615Z,96.97
2019-03-30T08:33:03.520Z,89.95
2019-03-30T08:35:07.645Z,90.10
2019-03-30T08:37:11.538Z,87.80
2019-03-30T08:39:15.398Z,88.75
2019-03-30T08:41:19.318Z,89.32
2019-03-30T08:43:23.261Z,94.07
2019-03-30T08:45:27.470Z,84.60
2019-03-30T08:47:31.393Z,89.87
2019-03-30T08:49:35.303Z,85.35
2019-03-30T08:51:39.175Z,87.65
2019-03-30T08:53:53.954Z,86.28
2019-03-30T08:55:48.625Z,81.05
2019-03-30T08:57:52.409Z,80.67
2019-03-30T08:59:56.290Z,81.97
2019-03-30T09:02:00.206Z,80.32
2019-03-30T09:04:04.137Z,75.10
2019-03-30T09:06:08.047Z,80.07
2019-03-30T09:08:12.069Z,73.50
2019-03-30T09:10:15.910Z,82.22
2019-03-30T09:12:19.800Z,79.45
2019-03-30T09:14:23.693Z,72.80
2019-03-30T09:16:27.537Z,71.17
2019-03-30T09:18:31.427Z,68.50
2019-03-30T09:20:35.393Z,68.35
2019-03-30T09:22:39.262Z,61.85
2019-03-30T09:24:43.140Z,65.03
2019-03-30T09:26:47.030Z,63.05
2019-03-30T09:28:50.894Z,59.55
2019-03-30T09:30:54.736Z,60.38
2019-03-30T09:32:58.638Z,52.00
2019-03-30T09:35:02.511Z,54.33
2019-03-30T09:37:06.325Z,51.30
2019-03-30T09:39:10.643Z,49.40
2019-03-30T09:41:14.482Z,46.13
2019-03-30T09:43:18.319Z,36.88
2019-03-30T09:45:22.249Z,39.78
2019-03-30T09:47:26.861Z,40.17
2019-03-30T09:49:30.856Z,44.33
2019-03-30T09:51:35.002Z,52.98
2019-03-30T09:53:38.953Z,53.70
2019-03-30T09:55:42.934Z,53.38
2019-03-30T09:57:46.890Z,54.98
2019-03-30T09:59:51.028Z,47.83
2019-03-30T10:01:54.927Z,46.08
2019-03-30T10:03:59.042Z,49.75
2019-03-30T10:06:03.382Z,47.40
2019-03-30T10:08:07.720Z,47.27
2019-03-30T10:10:12.758Z,49.60
2019-03-30T10:12:16.650Z,49.00
2019-03-30T10:14:20.776Z,48.17
2019-03-30T10:16:24.880Z,45.88
2019-03-30T10:18:28.957Z,42.80
2019-03-30T10:20:33.066Z,43.00
2019-03-30T10:22:37.274Z,40.60
2019-03-30T10:24:41.246Z,45.98
2019-03-30T10:26:45.224Z,42.25
2019-03-30T10:28:49.747Z,43.68
2019-03-30T10:30:54.383Z,42.08
2019-03-30T10:32:58.356Z,41.88
2019-03-30T10:35:02.471Z,41.55
2019-03-30T10:37:06.505Z,41.77
2019-03-30T10:39:11.026Z,42.67
2019-03-30T10:41:15.042Z,42.10
2019-03-30T10:43:18.892Z,40.12
2019-03-30T10:45:23.032Z,40.60
2019-03-30T10:47:27.305Z,36.68
2019-03-30T10:49:31.298Z,41.08
2019-03-30T10:51:35.247Z,40.67
2019-03-30T10:53:39.683Z,43.35
2019-03-30T10:55:43.802Z,42.58
2019-03-30T10:57:47.974Z,40.03
2019-03-30T10:59:52.224Z,42.20
2019-03-30T11:01:56.483Z,37.60
2019-03-30T11:04:00.452Z,39.08
2019-03-30T11:06:04.816Z,38.98
2019-03-30T11:08:08.857Z,39.92
2019-03-30T11:10:13.051Z,45.55
2019-03-30T11:12:17.276Z,41.30
2019-03-30T11:14:21.337Z,42.43
2019-03-30T11:16:25.282Z,40.83
2019-03-30T11:18:29.267Z,43.30
2019-03-30T11:20:33.184Z,39.50
2019-03-30T11:22:37.105Z,40.50
2019-03-30T11:24:41.373Z,41.25
2019-03-30T11:26:45.297Z,38.60
2019-03-30T11:28:49.202Z,40.38
2019-03-30T11:30:53.156Z,42.53
2019-03-30T11:32:57.004Z,43.68
2019-03-30T11:35:00.909Z,42.43
2019-03-30T11:37:05.224Z,43.30
2019-03-30T11:39:09.067Z,42.10
2019-03-30T11:41:12.943Z,39.00
2019-03-30T11:43:16.901Z,38.50
2019-03-30T11:45:20.733Z,41.35
2019-03-30T11:47:24.593Z,40.67
2019-03-30T11:49:28.451Z,41.53
2019-03-30T11:51:32.365Z,37.95
2019-03-30T11:53:36.236Z,37.83
2019-03-30T11:55:40.173Z,37.95
2019-03-30T11:57:44.036Z,37.45
2019-03-30T11:59:47.966Z,38.73
2019-03-30T12:01:51.942Z,37.08
2019-03-30T12:03:55.859Z,37.75
2019-03-30T12:05:59.718Z,36.13
2019-03-30T12:08:03.654Z,36.98
2019-03-30T12:10:07.704Z,36.00
2019-03-30T12:12:11.614Z,33.35
2019-03-30T12:14:15.612Z,32.73
2019-03-30T12:16:19.542Z,33.13
2019-03-30T12:18:23.387Z,35.28
2019-03-30T12:20:27.306Z,36.03
2019-03-30T12:22:31.146Z,36.60
2019-03-30T12:24:34.963Z,35.50
2019-03-30T12:26:38.995Z,34.75
2019-03-30T12:28:42.851Z,31.87
2019-03-30T12:30:46.687Z,36.50
2019-03-30T12:32:50.586Z,30.48
2019-03-30T12:34:54.458Z,33.98
2019-03-30T12:36:58.319Z,34.40
2019-03-30T12:39:02.254Z,29.02
2019-03-30T12:41:07.560Z,35.63
2019-03-30T12:43:11.405Z,46.88
2019-03-30T12:45:15.489Z,33.45
2019-03-30T12:47:19.331Z,29.30
2019-03-30T12:49:23.194Z,33.08
2019-03-30T12:51:27.097Z,28.00
2019-03-30T12:53:30.967Z,29.67
2019-03-30T12:55:48.329Z,26.95
2019-03-30T12:57:40.424Z,25.92
2019-03-30T12:59:44.386Z,26.20
2019-03-30T13:01:48.225Z,25.65
2019-03-30T13:03:52.159Z,26.80
2019-03-30T13:05:56.050Z,26.17
2019-03-30T13:07:59.894Z,26.37
2019-03-30T13:10:06.174Z,23.77
2019-03-30T13:12:10.028Z,31.37
2019-03-30T13:14:13.925Z,29.95
2019-03-30T13:16:18.792Z,28.90
2019-03-30T13:18:22.806Z,29.25
2019-03-30T13:20:26.719Z,25.55
2019-03-30T13:22:30.695Z,29.07
2019-03-30T13:24:34.593Z,29.40
2019-03-30T13:26:38.480Z,31.82
2019-03-30T13:28:42.404Z,27.93
2019-03-30T13:30:46.263Z,24.45
2019-03-30T13:32:53.264Z,30.37
2019-03-30T13:34:56.296Z,25.30
2019-03-30T13:37:00.135Z,23.80
2019-03-30T13:39:04.221Z,24.05
2019-03-30T13:41:08.277Z,25.43
2019-03-30T13:43:12.116Z,27.55
2019-03-30T13:45:16.129Z,25.10
2019-03-30T13:47:20.058Z,26.93
2019-03-30T13:49:23.882Z,26.73
2019-03-30T13:51:27.785Z,27.25
2019-03-30T13:53:31.806Z,24.70
2019-03-30T13:55:35.670Z,26.02
2019-03-30T13:57:39.559Z,24.43
2019-03-30T13:59:43.427Z,22.48
2019-03-30T14:01:47.370Z,24.75
2019-03-30T14:03:51.229Z,24.57
2019-03-30T14:05:55.142Z,24.82
2019-03-30T14:07:58.999Z,25.50
2019-03-30T14:10:02.848Z,23.92
2019-03-30T14:12:06.773Z,26.80
2019-03-30T14:14:10.639Z,24.12
2019-03-30T14:16:14.519Z,27.07
2019-03-30T14:18:18.735Z,26.35
2019-03-30T14:20:22.607Z,27.85
2019-03-30T14:22:26.450Z,27.35
2019-03-30T14:24:30.353Z,30.12
2019-03-30T14:26:34.147Z,22.90
2019-03-30T14:28:38.115Z,25.15
2019-03-30T14:30:42.338Z,26.00
2019-03-30T14:32:46.212Z,26.37
2019-03-30T14:34:50.043Z,25.50
2019-03-30T14:36:53.967Z,28.10
2019-03-30T14:38:57.827Z,23.38
2019-03-30T14:41:03.818Z,26.60
2019-03-30T14:43:07.827Z,27.42
2019-03-30T14:45:11.904Z,25.00
2019-03-30T14:47:15.781Z,22.98
2019-03-30T14:49:19.622Z,24.45
2019-03-30T14:51:23.506Z,25.82
2019-03-30T14:53:27.370Z,25.15
2019-03-30T14:55:31.232Z,25.40
2019-03-30T14:57:35.129Z,26.50
2019-03-30T14:59:39.030Z,27.40
2019-03-30T15:01:42.837Z,24.82
2019-03-30T15:03:46.782Z,25.57
2019-03-30T15:05:50.630Z,26.27
2019-03-30T15:07:54.495Z,25.23
2019-03-30T15:09:58.398Z,26.57
2019-03-30T15:12:02.263Z,25.45
2019-03-30T15:14:06.400Z,26.57
2019-03-30T15:16:10.276Z,25.55
2019-03-30T15:18:14.121Z,27.60
2019-03-30T15:20:18.138Z,25.97
2019-03-30T15:22:21.990Z,26.70
2019-03-30T15:24:25.828Z,24.80
2019-03-30T15:26:29.775Z,26.77
2019-03-30T15:28:33.620Z,26.07
2019-03-30T15:30:37.473Z,25.72
2019-03-30T15:32:41.391Z,27.48
2019-03-30T15:34:45.228Z,25.25
2019-03-30T15:36:49.071Z,25.57
2019-03-30T15:38:52.951Z,28.27
2019-03-30T15:40:56.856Z,25.60
2019-03-30T15:43:00.780Z,27.77
2019-03-30T15:45:09.127Z,30.52
2019-03-30T15:47:13.008Z,30.62
2019-03-30T15:49:16.832Z,28.17
2019-03-30T15:51:20.751Z,26.87
2019-03-30T15:53:24.610Z,27.15
2019-03-30T15:55:28.415Z,29.85
2019-03-30T15:57:32.397Z,27.65
2019-03-30T15:59:36.230Z,29.72
2019-03-30T16:01:40.101Z,30.20
2019-03-30T16:03:44.128Z,27.30
2019-03-30T16:05:48.023Z,29.42
2019-03-30T16:07:51.882Z,27.65
2019-03-30T16:09:55.781Z,29.25
2019-03-30T16:11:59.656Z,30.17
2019-03-30T16:14:03.590Z,28.30
2019-03-30T16:16:07.447Z,29.98
2019-03-30T16:18:11.321Z,30.15
2019-03-30T16:20:15.677Z,30.50
2019-03-30T16:22:19.546Z,30.77
2019-03-30T16:24:23.462Z,29.65
2019-03-30T16:26:40.901Z,32.20
2019-03-30T16:28:32.848Z,34.90
2019-03-30T16:30:36.857Z,33.70
2019-03-30T16:32:40.715Z,31.90
2019-03-30T16:34:44.578Z,31.82
2019-03-30T16:36:48.590Z,32.73
2019-03-30T16:38:52.410Z,34.05
2019-03-30T16:40:56.321Z,31.57
2019-03-30T16:43:00.214Z,31.80
2019-03-30T16:45:05.263Z,32.25
2019-03-30T16:47:10.119Z,29.27
2019-03-30T16:49:14.065Z,33.23
2019-03-30T16:51:17.909Z,31.90
2019-03-30T16:53:21.703Z,31.87
2019-03-30T16:55:25.628Z,31.87
2019-03-30T16:57:42.517Z,33.00
2019-03-30T16:59:34.971Z,33.88
2019-03-30T17:01:38.958Z,33.20
2019-03-30T17:03:42.912Z,33.00
2019-03-30T17:05:46.712Z,36.50
2019-03-30T17:07:50.555Z,38.80
2019-03-30T17:09:54.433Z,36.77
2019-03-30T17:11:58.242Z,37.00
2019-03-30T17:14:02.159Z,38.23
2019-03-30T17:16:06.066Z,42.50
2019-03-30T17:18:09.931Z,43.25
2019-03-30T17:20:14.078Z,41.08
2019-03-30T17:22:17.992Z,45.05
2019-03-30T17:24:21.856Z,37.20
2019-03-30T17:26:25.738Z,37.25
2019-03-30T17:28:29.625Z,44.93
2019-03-30T17:30:33.489Z,42.80
2019-03-30T17:32:37.335Z,42.08
2019-03-30T17:34:41.247Z,39.90
2019-03-30T17:36:45.106Z,43.90
2019-03-30T17:38:48.936Z,51.40
2019-03-30T17:40:52.837Z,51.48
2019-03-30T17:42:56.682Z,54.27
2019-03-30T17:45:01.018Z,46.92
2019-03-30T17:47:04.871Z,55.28
2019-03-30T17:49:08.704Z,67.80
2019-03-30T17:51:12.639Z,68.87
2019-03-30T17:53:16.437Z,76.77
2019-03-30T17:55:33.147Z,77.53
2019-03-30T17:57:25.969Z,75.50
2019-03-30T17:59:29.811Z,80.97
2019-03-30T18:01:33.686Z,79.37
2019-03-30T18:03:37.646Z,77.92
2019-03-30T18:05:41.529Z,84.92
2019-03-30T18:07:45.430Z,84.35
2019-03-30T18:09:49.312Z,85.05
2019-03-30T18:11:53.137Z,89.35
2019-03-30T18:13:57.077Z,84.95
2019-03-30T18:16:00.955Z,78.33
2019-03-30T18:18:04.809Z,101.02
2019-03-30T18:20:09.188Z,110.68
2019-03-30T18:22:13.112Z,122.62
2019-03-30T18:24:16.955Z,127.35
2019-03-30T18:26:20.805Z,140.12
2019-03-30T18:28:27.451Z,143.22
2019-03-30T18:30:40.582Z,149.10
2019-03-30T18:32:44.446Z,137.15
2019-03-30T18:34:48.846Z,138.40
2019-03-30T18:36:53.145Z,130.75
2019-03-30T18:39:09.550Z,128.75
2019-03-30T18:41:04.394Z,123.38
2019-03-30T18:43:08.288Z,124.65
2019-03-30T18:45:15.073Z,126.97
2019-03-30T18:47:18.971Z,133.50
2019-03-30T18:49:22.845Z,140.68
2019-03-30T18:51:27.982Z,128.55
2019-03-30T18:53:32.508Z,127.40
2019-03-30T18:55:36.392Z,135.15
2019-03-30T18:57:40.298Z,134.90
2019-03-30T18:59:44.209Z,135.50
2019-03-30T19:01:48.049Z,128.60
2019-03-30T19:03:51.943Z,124.78
2019-03-30T19:05:55.873Z,129.57
2019-03-30T19:07:59.719Z,117.25
2019-03-30T19:10:03.806Z,130.43
2019-03-30T19:12:07.697Z,126.80
2019-03-30T19:14:17.258Z,139.20
2019-03-30T19:16:21.244Z,130.30
2019-03-30T19:18:25.161Z,119.22
2019-03-30T19:20:29.096Z,119.82
2019-03-30T19:22:33.000Z,109.10
2019-03-30T19:24:36.890Z,107.27
2019-03-30T19:26:40.763Z,101.00
2019-03-30T19:28:56.327Z,136.92
2019-03-30T19:30:52.662Z,147.82
2019-03-30T19:32:56.485Z,172.85
2019-03-30T19:35:00.360Z,213.82
2019-03-30T19:37:04.591Z,205.55
2019-03-30T19:39:09.439Z,172.05
2019-03-30T19:41:13.324Z,160.90
2019-03-30T19:43:17.446Z,140.90
2019-03-30T19:45:21.338Z,129.40
2019-03-30T19:47:25.194Z,121.53
2019-03-30T19:49:29.287Z,116.57
2019-03-30T19:51:33.224Z,103.25
2019-03-30T19:53:37.065Z,100.38
2019-03-30T19:55:41.128Z,91.90
2019-03-30T19:57:44.978Z,80.40
2019-03-30T19:59:48.854Z,84.10
2019-03-30T20:01:52.710Z,88.30
2019-03-30T20:03:56.562Z,79.22
2019-03-30T20:06:00.432Z,75.08
2019-03-30T20:08:12.075Z,79.35
2019-03-30T20:10:10.237Z,77.00
2019-03-30T20:12:14.309Z,69.03
2019-03-30T20:14:18.341Z,71.10
2019-03-30T20:16:22.274Z,65.60
2019-03-30T20:18:26.332Z,64.77
2019-03-30T20:20:30.250Z,63.80
2019-03-30T20:22:34.168Z,62.03
2019-03-30T20:24:38.037Z,60.15
2019-03-30T20:26:41.889Z,59.63
2019-03-30T20:28:45.830Z,55.92
2019-03-30T20:30:49.673Z,54.27
2019-03-30T20:32:53.529Z,60.17
2019-03-30T20:34:57.398Z,56.65
2019-03-30T20:37:01.279Z,61.35
2019-03-30T20:39:08.345Z,56.70
2019-03-30T20:41:12.388Z,60.50
2019-03-30T20:43:16.226Z,66.45
2019-03-30T20:45:20.071Z,72.53
2019-03-30T20:47:24.003Z,66.97
2019-03-30T20:49:27.829Z,61.88
2019-03-30T20:51:31.726Z,65.72
2019-03-30T20:53:35.628Z,61.13
2019-03-30T20:55:39.434Z,62.40
2019-03-30T20:57:43.350Z,65.37
2019-03-30T20:59:47.252Z,79.05
2019-03-30T21:01:51.113Z,89.77
2019-03-30T21:03:54.946Z,85.00
2019-03-30T21:05:58.840Z,83.47
2019-03-30T21:08:02.708Z,80.35
2019-03-30T21:10:08.045Z,72.20
2019-03-30T21:12:11.920Z,80.38
2019-03-30T21:14:15.798Z,78.97
2019-03-30T21:16:19.619Z,131.93
2019-03-30T21:18:23.578Z,117.70
2019-03-30T21:20:27.446Z,156.93
2019-03-30T21:22:31.291Z,173.78
2019-03-30T21:24:35.177Z,220.67
2019-03-30T21:26:38.944Z,174.70
2019-03-30T21:28:42.866Z,157.18
2019-03-30T21:30:46.800Z,97.67
2019-03-30T21:32:50.747Z,77.53
2019-03-30T21:34:54.609Z,68.95
2019-03-30T21:36:58.476Z,75.75
2019-03-30T21:39:02.339Z,73.25
2019-03-30T21:41:06.182Z,72.95
2019-03-30T21:43:10.095Z,82.15
2019-03-30T21:45:14.045Z,80.77
2019-03-30T21:47:17.907Z,72.67
2019-03-30T21:49:22.170Z,79.87
2019-03-30T21:51:26.026Z,81.37
2019-03-30T21:53:29.882Z,80.87
2019-03-30T21:55:33.774Z,76.67
2019-03-30T21:57:37.687Z,71.85
2019-03-30T21:59:41.558Z,67.22
2019-03-30T22:01:45.423Z,69.67
2019-03-30T22:03:49.359Z,67.92
2019-03-30T22:05:53.256Z,65.35
2019-03-30T22:07:58.073Z,65.35
2019-03-30T22:10:02.365Z,66.47
2019-03-30T22:12:06.201Z,67.25
2019-03-30T22:14:10.087Z,68.17
2019-03-30T22:16:14.010Z,66.05
2019-03-30T22:18:17.909Z,69.92
2019-03-30T22:20:21.807Z,66.02
2019-03-30T22:22:25.695Z,60.35
2019-03-30T22:24:29.522Z,62.35
2019-03-30T22:26:33.383Z,60.73
2019-03-30T22:28:37.262Z,66.35
2019-03-30T22:30:41.274Z,65.40
2019-03-30T22:32:47.483Z,66.60
2019-03-30T22:34:51.385Z,66.42
2019-03-30T22:36:55.230Z,66.22
2019-03-30T22:38:59.073Z,64.05
2019-03-30T22:41:02.968Z,63.00
2019-03-30T22:43:06.867Z,67.53
2019-03-30T22:45:10.841Z,61.28
2019-03-30T22:47:14.706Z,72.20
2019-03-30T22:49:18.639Z,69.15
2019-03-30T22:51:22.504Z,68.35
2019-03-30T22:53:26.367Z,67.05
2019-03-30T22:55:30.279Z,72.40
2019-03-30T22:57:34.107Z,66.37
2019-03-30T22:59:38.013Z,66.00
2019-03-30T23:01:41.839Z,68.07
2019-03-30T23:03:45.771Z,64.40
2019-03-30T23:05:49.616Z,64.12
2019-03-30T23:07:53.447Z,63.48
2019-03-30T23:09:57.303Z,71.35
2019-03-30T23:12:01.311Z,64.50
2019-03-30T23:14:05.180Z,68.05
2019-03-30T23:16:09.125Z,69.90
2019-03-30T23:18:13.019Z,66.30
2019-03-30T23:20:21.158Z,70.10
2019-03-30T23:22:25.209Z,70.90
2019-03-30T23:24:29.427Z,62.73
2019-03-30T23:26:33.293Z,69.22
2019-03-30T23:28:37.191Z,69.05
2019-03-30T23:30:53.461Z,67.37
2019-03-30T23:32:46.534Z,66.75
2019-03-30T23:34:50.433Z,76.25
2019-03-30T23:36:54.269Z,72.75
2019-03-30T23:38:58.150Z,75.40
2019-03-30T23:41:01.992Z,78.52
2019-03-30T23:43:05.951Z,82.20
2019-03-30T23:45:09.835Z,93.05
2019-03-30T23:47:13.879Z,91.63
2019-03-30T23:49:17.885Z,101.65
2019-03-30T23:51:21.824Z,104.65
2019-03-30T23:53:25.849Z,111.03
2019-03-30T23:55:29.711Z,102.58
2019-03-30T23:57:33.549Z,106.43
2019-03-30T23:59:37.649Z,110.20
